Time;durP1;ratioP1;P1;durP2;ratioP2;P2;SDS_P1;SDS_P2;PMS_P1;PMS_P2;Temp;Humidity;BMP_temperature;BMP_pressure;BME280_temperature;BME280_humidity;BME280_pressure;Samples;Min_cycle;Max_cycle;Signal;HPM_P1;HPM_P2
2022/09/25 00:00:54;;;;;;;14.33;2.00;;;;;;;10.49;100.00;101412.09;5138993;27;20116;-87
2022/09/25 00:03:25;;;;;;;8.80;1.52;;;;;;;10.47;100.00;101408.75;5139289;27;20026;-87
2022/09/25 00:05:51;;;;;;;7.43;2.05;;;;;;;10.45;100.00;101417.09;5139542;27;20027;-87
2022/09/25 00:08:18;;;;;;;8.15;1.50;;;;;;;10.38;100.00;101413.50;5139475;27;20062;-87
2022/09/25 00:10:51;;;;;;;7.27;1.80;;;;;;;10.34;100.00;101421.19;5139286;27;20117;-88
2022/09/25 00:13:19;;;;;;;7.25;1.90;;;;;;;10.31;100.00;101423.44;5158023;27;20105;-87
2022/09/25 00:15:49;;;;;;;7.00;1.50;;;;;;;10.22;100.00;101422.75;5139207;27;20027;-87
2022/09/25 00:19:48;;;;;;;13.15;2.60;;;;;;;10.23;100.00;101424.44;5138606;27;20019;-87
2022/09/25 00:21:03;;;;;;;10.65;2.33;;;;;;;10.12;100.00;101422.28;5157278;27;20435;-88
2022/09/25 00:23:28;;;;;;;11.10;2.40;;;;;;;10.10;100.00;101422.47;5157119;27;20022;-87
2022/09/25 00:25:58;;;;;;;8.10;2.63;;;;;;;10.13;100.00;101426.69;5137790;27;20034;-87
2022/09/25 00:28:28;;;;;;;9.43;2.00;;;;;;;10.06;100.00;101423.09;5157338;27;20122;-87
2022/09/25 00:30:55;;;;;;;5.03;1.63;;;;;;;10.06;100.00;101428.50;5139448;27;20038;-88
2022/09/25 00:33:30;;;;;;;11.88;2.15;;;;;;;10.05;100.00;101432.25;5138692;27;20026;-87
2022/09/25 00:36:02;;;;;;;10.75;2.00;;;;;;;10.03;100.00;101426.19;5139026;27;20034;-87
2022/09/25 00:38:32;;;;;;;8.02;2.13;;;;;;;9.98;100.00;101427.63;5138871;27;20023;-87
2022/09/25 00:40:59;;;;;;;5.53;1.90;;;;;;;9.96;100.00;101429.66;5156871;27;20023;-87
2022/09/25 00:43:47;;;;;;;9.07;2.08;;;;;;;9.88;100.00;101416.28;5139282;27;20118;-87
2022/09/25 00:46:37;;;;;;;10.23;2.38;;;;;;;9.88;100.00;101415.44;5138523;27;20069;-88
2022/09/25 00:49:13;;;;;;;10.98;2.30;;;;;;;9.90;100.00;101411.47;5138721;27;20121;-87
2022/09/25 00:51:47;;;;;;;12.88;2.35;;;;;;;9.83;100.00;101414.16;5157246;27;20031;-87
2022/09/25 00:54:26;;;;;;;7.07;2.03;;;;;;;9.83;100.00;101416.88;5138262;27;20054;-87
2022/09/25 00:56:54;;;;;;;14.00;2.20;;;;;;;9.83;100.00;101419.59;5157466;27;20103;-87
2022/09/25 00:59:39;;;;;;;7.50;2.08;;;;;;;9.82;100.00;101423.31;5138123;27;20026;-87
2022/09/25 01:02:12;;;;;;;7.30;1.88;;;;;;;9.75;100.00;101419.72;5138423;27;20066;-87
2022/09/25 01:04:41;;;;;;;7.10;2.35;;;;;;;9.72;100.00;101427.41;5137832;27;20074;-87
2022/09/25 01:07:08;;;;;;;7.07;1.80;;;;;;;9.74;100.00;101433.47;5138102;27;20027;-87
2022/09/25 01:09:35;;;;;;;7.97;1.90;;;;;;;9.66;100.00;101429.03;5137837;27;20030;-87
2022/09/25 01:12:01;;;;;;;10.98;2.28;;;;;;;9.67;100.00;101422.56;5138086;27;20018;-88
2022/09/25 01:14:27;;;;;;;14.07;2.53;;;;;;;9.59;100.00;101434.38;5137714;27;20046;-87
2022/09/25 01:17:23;;;;;;;9.57;1.83;;;;;;;9.53;100.00;101426.19;5138088;27;20076;-87
2022/09/25 01:20:04;;;;;;;5.80;1.67;;;;;;;9.55;100.00;101432.25;5157062;27;20030;-87
2022/09/25 01:23:10;;;;;;;5.97;1.80;;;;;;;9.48;100.00;101438.44;5138099;27;20029;-87
2022/09/25 01:26:10;;;;;;;7.97;2.60;;;;;;;9.39;100.00;101430.63;5156319;27;20481;-87
2022/09/25 01:28:37;;;;;;;11.38;2.63;;;;;;;9.38;100.00;101437.09;5155881;27;20057;-87
2022/09/25 01:31:12;;;;;;;6.43;1.63;;;;;;;9.31;100.00;101428.88;5137682;27;20094;-87
2022/09/25 01:33:59;;;;;;;9.18;2.20;;;;;;;9.26;100.00;101425.94;5137856;27;20106;-88
2022/09/25 01:36:33;;;;;;;10.02;2.40;;;;;;;9.25;100.00;101435.91;5137118;27;20022;-88
2022/09/25 01:39:17;;;;;;;10.73;2.00;;;;;;;9.24;100.00;101446.94;5137277;27;20063;-88
2022/09/25 01:41:54;;;;;;;11.98;1.90;;;;;;;9.19;100.00;101443.97;5155744;27;20545;-87
2022/09/25 01:44:28;;;;;;;7.27;2.70;;;;;;;9.10;100.00;101437.84;5137901;27;20080;-88
2022/09/25 01:46:58;;;;;;;12.10;2.17;;;;;;;9.03;100.00;101435.03;5137673;27;20055;-87
2022/09/25 01:49:35;;;;;;;12.02;2.25;;;;;;;9.01;100.00;101444.41;5136966;27;20535;-87
2022/09/25 01:52:05;;;;;;;7.45;2.20;;;;;;;8.98;100.00;101450.22;5137027;27;20121;-87
2022/09/25 01:54:43;;;;;;;11.63;2.47;;;;;;;8.96;100.00;101453.06;5136984;27;20061;-87
2022/09/25 01:57:24;;;;;;;10.80;2.60;;;;;;;8.88;100.00;101453.19;5137463;27;20058;-87
2022/09/25 02:00:01;;;;;;;10.57;2.45;;;;;;;8.86;100.00;101456.09;5137044;27;20037;-87
2022/09/25 02:02:35;;;;;;;18.65;2.63;;;;;;;8.85;100.00;101449.00;5155808;27;20382;-87
2022/09/25 02:05:11;;;;;;;8.23;2.15;;;;;;;8.76;100.00;101442.84;5155342;27;20029;-89
2022/09/25 02:07:43;;;;;;;9.68;2.90;;;;;;;8.71;100.00;101447.13;5137325;27;20079;-87
2022/09/25 02:10:19;;;;;;;21.63;2.60;;;;;;;8.66;100.00;101447.72;5136841;27;20057;-87
2022/09/25 02:12:52;;;;;;;9.40;3.20;;;;;;;8.61;100.00;101439.34;5137260;27;20056;-87
2022/09/25 02:15:27;;;;;;;14.65;3.05;;;;;;;8.63;100.00;101452.66;5136864;27;20022;-87
2022/09/25 02:21:06;;;;;;;12.82;3.45;;;;;;;8.53;100.00;101434.00;5156056;27;20083;-87
2022/09/25 02:24:12;;;;;;;13.93;2.67;;;;;;;8.49;100.00;101448.94;5137238;27;20064;-87
2022/09/25 02:26:37;;;;;;;12.07;2.80;;;;;;;8.43;100.00;101434.28;5136906;27;20026;-87
2022/09/25 02:29:07;;;;;;;7.97;3.03;;;;;;;8.36;100.00;101427.94;5137070;27;20029;-87
2022/09/25 02:31:54;;;;;;;9.45;2.75;;;;;;;8.36;100.00;101452.28;5136505;27;20031;-87
2022/09/25 02:34:23;;;;;;;9.85;3.08;;;;;;;8.27;100.00;101435.31;5155325;27;20038;-87
2022/09/25 02:36:49;;;;;;;12.68;2.83;;;;;;;8.23;100.00;101439.41;5136674;27;20034;-87
2022/09/25 02:39:21;;;;;;;10.37;2.73;;;;;;;8.23;100.00;101445.63;5136667;27;20109;-87
2022/09/25 02:42:10;;;;;;;12.68;3.45;;;;;;;8.22;100.00;101451.22;5137407;27;20033;-87
2022/09/25 02:44:45;;;;;;;8.45;3.00;;;;;;;8.19;100.00;101451.59;5155557;27;20067;-87
2022/09/25 02:47:26;;;;;;;8.98;2.72;;;;;;;8.12;100.00;101447.94;5136646;27;20035;-88
2022/09/25 02:50:04;;;;;;;8.48;3.22;;;;;;;8.14;100.00;101454.84;5139422;27;20038;-87
2022/09/25 02:53:00;;;;;;;9.23;2.90;;;;;;;8.04;100.00;101444.31;5141020;27;20027;-87
2022/09/25 02:55:38;;;;;;;12.55;3.20;;;;;;;8.06;100.00;101455.78;5140340;27;20054;-87
2022/09/25 02:58:16;;;;;;;13.80;3.10;;;;;;;8.03;100.00;101436.38;5141380;27;20031;-87
2022/09/25 03:00:47;;;;;;;7.95;3.00;;;;;;;8.04;100.00;101427.25;5140314;27;20042;-87
2022/09/25 03:03:18;;;;;;;7.00;2.80;;;;;;;8.01;100.00;101423.06;5140800;27;20061;-87
2022/09/25 03:05:52;;;;;;;8.67;3.57;;;;;;;7.96;100.00;101420.06;5159081;27;20034;-87
2022/09/25 03:08:37;;;;;;;12.55;2.67;;;;;;;7.97;100.00;101434.41;5158764;27;20035;-87
2022/09/25 03:11:04;;;;;;;7.32;2.55;;;;;;;7.93;100.00;101427.69;5140588;27;20374;-87
2022/09/25 03:13:32;;;;;;;10.65;2.88;;;;;;;7.94;100.00;101437.50;5140376;27;20066;-87
2022/09/25 03:16:03;;;;;;;8.98;3.13;;;;;;;7.91;100.00;101444.09;5124134;27;20443;-87
2022/09/25 03:18:30;;;;;;;10.87;3.03;;;;;;;7.86;100.00;101433.84;5141077;27;20138;-87
2022/09/25 03:20:56;;;;;;;11.77;3.00;;;;;;;7.80;100.00;101437.28;5140142;27;20127;-87
2022/09/25 03:23:21;;;;;;;10.52;3.33;;;;;;;7.77;100.00;101434.13;5122793;27;20054;-87
2022/09/25 03:25:47;;;;;;;15.17;3.97;;;;;;;7.74;100.00;101438.00;5121615;27;20034;-87
2022/09/25 03:28:13;;;;;;;14.90;3.90;;;;;;;7.69;100.00;101437.69;5122683;27;20027;-87
2022/09/25 03:30:39;;;;;;;12.00;3.90;;;;;;;7.65;100.00;101429.13;5140152;27;20030;-87
2022/09/25 03:33:10;;;;;;;10.23;3.70;;;;;;;7.69;100.00;101440.41;5158197;27;20071;-87
2022/09/25 03:35:37;;;;;;;11.70;4.00;;;;;;;7.61;100.00;101430.50;5123868;27;20077;-87
2022/09/25 03:38:03;;;;;;;16.27;4.80;;;;;;;7.62;100.00;101444.84;5139787;27;20394;-88
2022/09/25 03:40:31;;;;;;;11.05;5.22;;;;;;;7.61;100.00;101446.72;5139817;27;20129;-87
2022/09/25 03:42:59;;;;;;;18.27;5.00;;;;;;;7.55;100.00;101426.66;5139806;27;20367;-88
2022/09/25 03:45:26;;;;;;;14.05;4.88;;;;;;;7.50;100.00;101426.38;5158293;27;20022;-87
2022/09/25 03:47:56;;;;;;;10.02;5.45;;;;;;;7.54;100.00;101427.72;5139777;27;20117;-87
2022/09/25 03:50:22;;;;;;;13.52;5.07;;;;;;;7.46;100.00;101433.16;5139906;27;20393;-87
2022/09/25 03:52:50;;;;;;;12.07;5.83;;;;;;;7.49;100.00;101445.47;5139532;27;20110;-87
2022/09/25 03:55:18;;;;;;;21.15;6.68;;;;;;;7.42;100.00;101436.41;5139727;27;20046;-87
2022/09/25 03:57:44;;;;;;;22.35;7.68;;;;;;;7.44;100.00;101443.31;5158065;27;20034;-88
2022/09/25 04:00:10;;;;;;;20.50;7.82;;;;;;;7.41;100.00;101440.97;5138944;27;20023;-87
2022/09/25 04:02:36;;;;;;;20.17;6.90;;;;;;;7.43;100.00;101447.03;5139229;27;20018;-88
2022/09/25 04:05:05;;;;;;;25.70;8.50;;;;;;;7.38;100.00;101441.31;5122735;27;20430;-87
2022/09/25 04:07:31;;;;;;;20.60;7.80;;;;;;;7.35;100.00;101434.44;5139249;27;20053;-87
2022/09/25 04:09:59;;;;;;;19.00;8.20;;;;;;;7.32;100.00;101437.50;5139236;27;20054;-88
2022/09/25 04:12:26;;;;;;;22.83;8.38;;;;;;;7.35;100.00;101441.69;5139580;27;20034;-87
2022/09/25 04:14:52;;;;;;;20.70;8.40;;;;;;;7.33;100.00;101451.81;5138794;27;20045;-87
2022/09/25 04:17:20;;;;;;;24.98;9.63;;;;;;;7.29;100.00;101432.47;5139040;27;20023;-87
2022/09/25 04:19:55;;;;;;;;;;;;;;;;;;;;;
2022/09/25 04:22:26;;;;;;;24.80;10.07;;;;;;;7.27;100.00;101428.25;5157288;27;20037;-87
2022/09/25 04:24:53;;;;;;;23.67;9.70;;;;;;;7.30;100.00;101427.88;5138883;27;20087;-88
2022/09/25 04:27:31;;;;;;;26.05;10.18;;;;;;;7.23;100.00;101427.75;5139744;27;20015;-88
2022/09/25 04:30:01;;;;;;;27.20;9.88;;;;;;;7.26;100.00;101427.38;5139663;27;20099;-88
2022/09/25 04:35:16;;;;;;;24.35;9.68;;;;;;;7.26;100.00;101440.06;5157862;27;20046;-88
2022/09/25 04:37:42;;;;;;;23.37;10.00;;;;;;;7.15;100.00;101433.22;5121765;27;20403;-87
2022/09/25 04:40:10;;;;;;;20.77;9.57;;;;;;;7.17;100.00;101444.66;5138266;27;20080;-87
2022/09/25 04:42:38;;;;;;;25.10;9.33;;;;;;;7.13;100.00;101436.09;5122223;27;20079;-87
2022/09/25 04:45:06;;;;;;;24.17;10.00;;;;;;;7.10;100.00;101433.75;5121343;27;20038;-87
2022/09/25 04:47:31;;;;;;;24.85;10.10;;;;;;;7.09;100.00;101439.34;5156643;27;20058;-87
2022/09/25 04:49:59;;;;;;;26.53;10.23;;;;;;;7.03;100.00;101427.38;5138333;27;20355;-87
2022/09/25 04:52:27;;;;;;;21.73;9.27;;;;;;;7.05;100.00;101427.22;5138298;27;20027;-87
2022/09/25 04:55:00;;;;;;;19.98;9.40;;;;;;;7.00;100.00;101425.06;5121184;27;20050;-87
2022/09/25 04:57:30;;;;;;;28.90;10.50;;;;;;;6.99;100.00;101423.38;5137869;27;20046;-87
2022/09/25 04:59:58;;;;;;;26.23;10.20;;;;;;;6.99;100.00;101426.06;5138145;27;20034;-87
2022/09/25 05:02:29;;;;;;;23.80;10.27;;;;;;;6.98;100.00;101424.38;5157239;27;20030;-87
2022/09/25 05:05:02;;;;;;;32.30;10.38;;;;;;;6.97;100.00;101422.72;5121873;27;20125;-87
2022/09/25 05:07:30;;;;;;;29.92;10.68;;;;;;;6.92;100.00;101419.69;5138635;27;20034;-87
2022/09/25 05:09:57;;;;;;;24.90;9.75;;;;;;;6.90;100.00;101421.75;5137886;27;20027;-87
2022/09/25 05:12:30;;;;;;;25.70;10.65;;;;;;;6.91;100.00;101429.66;5137454;27;20485;-87
2022/09/25 05:14:55;;;;;;;19.60;10.20;;;;;;;6.87;100.00;101422.09;5138609;27;20031;-87
2022/09/25 05:17:25;;;;;;;25.80;10.00;;;;;;;6.81;100.00;101429.03;5137803;27;20386;-87
2022/09/25 05:19:51;;;;;;;30.47;10.63;;;;;;;6.83;100.00;101432.38;5157309;27;20034;-87
2022/09/25 05:22:19;;;;;;;23.58;9.55;;;;;;;6.80;100.00;101414.69;5137657;27;20024;-87
2022/09/25 05:24:47;;;;;;;25.43;10.20;;;;;;;6.79;100.00;101414.84;5156431;27;20458;-87
2022/09/25 05:27:14;;;;;;;32.30;11.35;;;;;;;6.82;100.00;101420.75;5137605;27;20117;-84
2022/09/25 05:29:42;;;;;;;29.45;10.20;;;;;;;6.77;100.00;101411.50;5120572;27;20031;-85
2022/09/25 05:32:17;;;;;;;30.02;11.27;;;;;;;6.82;100.00;101419.91;5137524;27;20030;-85
2022/09/25 05:34:51;;;;;;;20.73;10.15;;;;;;;6.85;100.00;101417.72;5137730;27;20041;-84
2022/09/25 05:37:17;;;;;;;25.40;10.87;;;;;;;6.81;100.00;101410.16;5121139;27;20034;-84
2022/09/25 05:39:52;;;;;;;21.45;10.13;;;;;;;6.85;100.00;101416.88;5137450;27;20382;-84
2022/09/25 05:42:18;;;;;;;24.55;10.45;;;;;;;6.81;100.00;101412.84;5138270;27;20023;-83
2022/09/25 05:44:48;;;;;;;24.83;11.07;;;;;;;6.81;100.00;101419.06;5156341;27;20481;-88
2022/09/25 05:47:17;;;;;;;23.98;10.57;;;;;;;6.85;100.00;101425.78;5120555;27;20037;-88
2022/09/25 05:49:42;;;;;;;24.33;11.00;;;;;;;6.81;100.00;101410.97;5137470;27;20038;-87
2022/09/25 05:52:10;;;;;;;21.85;10.20;;;;;;;6.83;100.00;101429.69;5138036;27;20027;-89
2022/09/25 05:54:53;;;;;;;;;;;;;;;;;;;;;
2022/09/25 05:57:34;;;;;;;;;;;;;;;;;;;;;
2022/09/25 06:03:41;;;;;;;28.83;10.57;;;;;;;6.81;100.00;101437.94;5098399;27;20530;-88
2022/09/25 06:06:06;;;;;;;30.35;11.25;;;;;;;6.86;100.00;101440.13;5138027;27;20053;-88
2022/09/25 06:08:42;;;;;;;28.33;10.70;;;;;;;6.88;100.00;101446.19;5137167;27;20462;-87
2022/09/25 06:11:23;;;;;;;33.20;10.70;;;;;;;6.90;100.00;101440.63;5137222;27;20462;-88
2022/09/25 06:13:49;;;;;;;25.83;10.20;;;;;;;6.91;100.00;101432.34;5136934;27;20038;-88
2022/09/25 06:16:18;;;;;;;29.27;10.57;;;;;;;6.98;100.00;101436.03;5136962;27;20022;-87
2022/09/25 06:18:51;;;;;;;28.17;10.32;;;;;;;7.00;100.00;101438.53;5136498;27;20026;-87
2022/09/25 06:21:40;;;;;;;28.90;11.85;;;;;;;7.02;100.00;101434.63;5155678;27;20530;-88
2022/09/25 06:24:09;;;;;;;27.50;11.27;;;;;;;7.09;100.00;101434.78;5123982;27;20034;-88
2022/09/25 06:26:40;;;;;;;32.75;11.05;;;;;;;7.15;100.00;101439.44;5159426;27;20031;-88
2022/09/25 06:29:15;;;;;;;28.60;11.77;;;;;;;7.18;100.00;101433.69;5140890;27;20034;-88
2022/09/25 06:31:44;;;;;;;27.40;11.57;;;;;;;7.27;100.00;101439.06;5141557;27;20347;-88
2022/09/25 06:34:10;;;;;;;29.20;12.05;;;;;;;7.28;100.00;101436.16;5140778;27;20034;-88
2022/09/25 06:36:41;;;;;;;27.15;11.93;;;;;;;7.32;100.00;101437.50;5159866;27;20026;-88
2022/09/25 06:39:09;;;;;;;30.88;13.18;;;;;;;7.37;100.00;101437.78;5123727;27;20080;-89
2022/09/25 06:41:51;;;;;;;28.10;12.83;;;;;;;7.48;100.00;101452.72;5140659;27;20030;-88
2022/09/25 06:44:34;;;;;;;35.25;12.63;;;;;;;7.50;100.00;101439.91;5141153;27;20029;-88
2022/09/25 06:47:09;;;;;;;28.30;12.07;;;;;;;7.59;100.00;101437.09;5125391;27;20095;-88
2022/09/25 06:49:45;;;;;;;33.88;13.73;;;;;;;7.60;100.00;101434.22;5141071;27;20483;-89
2022/09/25 06:52:27;;;;;;;;;;;;;;;;;;;;;
2022/09/25 06:55:02;;;;;;;31.50;12.27;;;;;;;7.76;100.00;101456.72;5095357;28;20485;-88
2022/09/25 06:57:37;;;;;;;31.13;12.82;;;;;;;7.79;100.00;101453.66;5078315;28;20032;-88
2022/09/25 07:00:12;;;;;;;31.98;12.98;;;;;;;7.85;100.00;101455.63;5140676;27;20126;-90
2022/09/25 07:05:24;;;;;;;31.87;12.37;;;;;;;8.06;100.00;101465.72;5159002;27;20107;-88
2022/09/25 07:07:58;;;;;;;29.73;12.60;;;;;;;8.05;100.00;101450.56;5158830;27;20027;-87
2022/09/25 07:10:26;;;;;;;32.78;13.82;;;;;;;8.12;100.00;101448.81;5158356;27;20489;-87
2022/09/25 07:12:52;;;;;;;28.52;12.75;;;;;;;8.24;100.00;101460.84;5140331;27;20065;-88
2022/09/25 07:15:17;;;;;;;28.93;12.90;;;;;;;8.31;100.00;101451.97;5159246;27;20058;-87
2022/09/25 07:17:53;;;;;;;29.25;13.68;;;;;;;8.34;100.00;101447.06;5158991;27;20455;-87
2022/09/25 07:20:21;;;;;;;25.70;12.23;;;;;;;8.45;100.00;101451.19;5140340;27;20030;-90
2022/09/25 07:22:48;;;;;;;27.50;11.82;;;;;;;8.49;100.00;101455.19;5158561;27;20034;-87
2022/09/25 07:25:24;;;;;;;27.73;12.13;;;;;;;8.59;100.00;101455.75;5139972;27;20076;-87
2022/09/25 07:27:58;;;;;;;28.50;12.05;;;;;;;8.68;100.00;101458.34;5139951;27;20023;-90
2022/09/25 07:30:26;;;;;;;27.30;12.45;;;;;;;8.74;100.00;101463.00;5139888;27;20027;-88
2022/09/25 07:33:11;;;;;;;;;;;;;;;;;;;;;
2022/09/25 07:35:42;;;;;;;24.67;11.32;;;;;;;8.82;100.00;101457.50;5142100;27;20033;-88
2022/09/25 07:38:22;;;;;;;29.65;12.00;;;;;;;8.91;100.00;101459.06;5140912;27;20030;-88
2022/09/25 07:40:51;;;;;;;31.05;13.40;;;;;;;9.00;100.00;101464.38;5123800;27;20034;-88
2022/09/25 07:43:17;;;;;;;18.98;11.15;;;;;;;9.04;100.00;101458.38;5139852;27;20071;-87
2022/09/25 07:45:52;;;;;;;19.27;11.57;;;;;;;9.16;100.00;101474.16;5139393;27;20431;-88
2022/09/25 07:48:30;;;;;;;;;;;;;;;;;;;;;
2022/09/25 07:51:10;;;;;;;23.70;10.17;;;;;;;9.25;100.00;101462.16;5095189;28;20058;-88
2022/09/25 07:56:59;;;;;;;18.98;9.75;;;;;;;9.44;100.00;101460.69;5092206;28;20087;-89
2022/09/25 07:59:55;;;;;;;19.10;10.35;;;;;;;9.46;100.00;101447.78;5060283;28;20060;-90
2022/09/25 08:02:51;;;;;;;19.92;9.85;;;;;;;9.55;100.00;101452.06;5078838;28;20084;-91
2022/09/25 08:05:21;;;;;;;28.37;8.20;;;;;;;9.64;100.00;101464.44;5062674;28;20123;-91
2022/09/25 08:07:52;;;;;;;19.25;8.10;;;;;;;9.65;100.00;101458.00;5061231;28;20391;-91
2022/09/25 08:10:36;;;;;;;12.82;7.22;;;;;;;9.78;100.00;101453.72;5060971;28;20040;-92
2022/09/25 08:13:19;;;;;;;;;;;;;;;;;;;;;
2022/09/25 08:15:51;;;;;;;17.60;6.53;;;;;;;9.90;100.00;101451.31;5063517;28;20051;-90
2022/09/25 08:18:31;;;;;;;14.57;6.17;;;;;;;9.97;100.00;101447.63;5076840;28;20028;-91
2022/09/25 08:21:14;;;;;;;17.63;6.22;;;;;;;10.04;100.00;101446.81;5051973;27;20031;-91
2022/09/25 08:23:59;;;;;;;14.70;5.75;;;;;;;10.17;100.00;101458.63;5136357;27;20023;-91
2022/09/25 08:26:28;;;;;;;11.45;5.82;;;;;;;10.26;100.00;101455.75;5135496;27;20065;-91
2022/09/25 08:28:58;;;;;;;11.23;5.07;;;;;;;10.35;100.00;101455.44;5137148;27;20046;-92
2022/09/25 08:31:43;;;;;;;10.07;4.30;;;;;;;10.39;100.00;101441.47;5136255;27;20110;-91
2022/09/25 08:34:17;;;;;;;13.88;4.13;;;;;;;10.50;100.00;101452.59;5120170;27;20033;-91
2022/09/25 08:36:58;;;;;;;11.68;4.03;;;;;;;10.58;100.00;101445.31;5135991;27;20031;-91
2022/09/25 08:39:33;;;;;;;13.45;3.47;;;;;;;10.65;100.00;101448.91;5135237;27;20031;-91
2022/09/25 08:42:01;;;;;;;7.45;1.98;;;;;;;10.74;100.00;101450.41;5119016;27;20058;-91
2022/09/25 08:44:38;;;;;;;10.10;2.03;;;;;;;10.90;100.00;101461.97;5135947;27;20075;-92
2022/09/25 08:50:17;;;;;;;5.68;2.30;;;;;;;10.99;100.00;101442.56;5136924;27;20034;-91
2022/09/25 08:53:00;;;;;;;4.53;1.80;;;;;;;11.15;100.00;101460.38;5135135;27;20027;-92
2022/09/25 08:58:58;;;;;;;;;;;;;;;;;;;;;
2022/09/25 09:01:29;;;;;;;6.65;1.80;;;;;;;11.35;100.00;101448.72;5135915;27;20061;-92
2022/09/25 09:04:31;;;;;;;5.38;1.48;;;;;;;11.52;100.00;101452.75;5117856;27;20050;-91
2022/09/25 09:07:23;;;;;;;6.07;1.38;;;;;;;11.65;100.00;101443.78;5134647;27;20031;-93
2022/09/25 09:10:28;;;;;;;7.82;1.70;;;;;;;11.93;100.00;101448.19;5091292;27;20078;-91
2022/09/25 09:17:14;;;;;;;;;;;;;;;;;;;;;
2022/09/25 09:20:20;;;;;;;;;;;;;;;;;;;;;
2022/09/25 09:23:14;;;;;;;12.25;1.52;;;;;;;12.28;100.00;101437.06;5135761;27;20108;-91
2022/09/25 09:26:19;;;;;;;;;;;;;;;;;;;;;
2022/09/25 09:28:48;;;;;;;3.97;0.90;;;;;;;13.01;98.20;101440.56;5106979;27;20061;-91
2022/09/25 09:31:59;;;;;;;;;;;;;;;;;;;;;
2022/09/25 09:35:31;;;;;;;;;;;;;;;;;;;;;
2022/09/25 09:38:18;;;;;;;6.93;1.15;;;;;;;13.78;92.93;101430.44;5136150;27;20030;-91
2022/09/25 09:47:51;;;;;;;6.68;0.95;;;;;;;14.46;88.03;101426.00;5135362;27;20038;-89
2022/09/25 09:50:53;;;;;;;5.43;0.90;;;;;;;14.70;88.19;101431.66;5116543;27;20035;-89
2022/09/25 09:53:32;;;;;;;6.15;0.68;;;;;;;14.98;82.74;101425.63;5116580;27;20106;-88
2022/09/25 09:56:31;;;;;;;;;;;;;;;;;;;;;
2022/09/25 09:59:05;;;;;;;5.53;1.07;;;;;;;15.19;78.58;101413.38;5127893;27;20043;-89
2022/09/25 10:01:43;;;;;;;4.20;0.85;;;;;;;15.25;77.67;101417.91;5116747;27;20027;-90
2022/09/25 10:04:25;;;;;;;5.63;1.20;;;;;;;15.27;80.08;101418.47;5116622;27;20037;-89
2022/09/25 10:07:08;;;;;;;6.07;1.27;;;;;;;15.43;78.75;101406.06;5116580;27;20467;-89
2022/09/25 10:09:55;;;;;;;5.50;0.82;;;;;;;15.89;78.08;101406.38;5116308;27;20057;-89
2022/09/25 10:12:47;;;;;;;5.27;1.20;;;;;;;16.15;76.29;101415.19;5127625;27;20084;-89
2022/09/25 10:15:37;;;;;;;;;;;;;;;;;;;;;
2022/09/25 10:18:17;;;;;;;6.65;0.85;;;;;;;16.07;70.22;101402.69;5135850;27;20381;-90
2022/09/25 10:20:54;;;;;;;3.08;0.73;;;;;;;16.05;70.97;101404.03;5101484;28;20088;-89
2022/09/25 10:23:57;;;;;;;3.45;0.77;;;;;;;16.09;74.09;101399.72;5100585;28;20023;-89
2022/09/25 10:26:33;;;;;;;6.07;1.23;;;;;;;16.14;70.08;101416.25;5116074;28;20485;-87
2022/09/25 10:29:01;;;;;;;3.88;0.80;;;;;;;16.17;67.61;101399.34;5134270;28;20379;-87
2022/09/25 10:31:35;;;;;;;4.65;0.90;;;;;;;16.59;70.00;101393.66;5115860;28;20051;-87
2022/09/25 10:34:18;;;;;;;6.78;0.93;;;;;;;17.00;65.91;101397.25;5116580;28;20042;-87
2022/09/25 10:36:50;;;;;;;4.40;0.82;;;;;;;17.41;64.19;101382.63;5116400;28;20485;-87
2022/09/25 10:39:39;;;;;;;3.20;0.87;;;;;;;17.88;67.48;101394.09;5135031;28;20038;-87
2022/09/25 10:45:34;;;;;;;2.22;0.90;;;;;;;18.19;60.82;101389.09;5091847;28;20043;-87
2022/09/25 10:51:07;;;;;;;5.25;1.20;;;;;;;18.55;62.58;101397.78;5091507;28;20157;-86
2022/09/25 10:53:35;;;;;;;3.63;0.80;;;;;;;18.14;58.77;101399.16;5091570;28;20032;-87
2022/09/25 10:56:09;;;;;;;6.40;0.90;;;;;;;17.95;58.63;101391.22;5073791;28;20138;-87
2022/09/25 10:58:42;;;;;;;4.50;1.00;;;;;;;18.17;56.08;101382.16;5074201;28;20028;-87
2022/09/25 11:01:12;;;;;;;4.07;0.90;;;;;;;18.76;52.27;101381.53;5074300;28;20047;-87
2022/09/25 11:10:56;;;;;;;5.95;1.23;;;;;;;21.53;49.39;101381.56;5033133;28;20119;-87
2022/09/25 11:24:02;;;;;;;4.10;1.40;;;;;;;33.07;34.64;101368.50;5039078;28;20095;-87
2022/09/25 11:26:37;;;;;;;4.05;1.20;;;;;;;35.02;26.90;101358.16;5038007;28;20106;-84
2022/09/25 11:35:49;;;;;;;3.90;1.67;;;;;;;39.43;22.31;101325.91;4978939;28;20034;-88
2022/09/25 11:41:52;;;;;;;2.67;2.15;;;;;;;38.45;18.65;101315.44;5137313;27;20600;-88
2022/09/25 11:44:30;;;;;;;6.82;2.05;;;;;;;34.56;22.36;101310.88;5119750;27;20121;-88
2022/09/25 11:47:14;;;;;;;3.08;1.80;;;;;;;31.90;28.60;101307.13;5137371;27;20027;-87
2022/09/25 11:49:50;;;;;;;3.97;1.65;;;;;;;30.06;27.89;101297.56;5119494;27;20043;-88
2022/09/25 11:52:39;;;;;;;4.13;1.83;;;;;;;32.33;23.71;101296.47;5119598;27;20355;-88
2022/09/25 11:55:16;;;;;;;4.60;2.30;;;;;;;36.21;21.18;101298.16;5137858;27;20030;-87
2022/09/25 11:58:13;;;;;;;5.22;1.90;;;;;;;38.84;20.04;101294.97;5137237;27;20139;-88
2022/09/25 12:00:59;;;;;;;3.78;2.08;;;;;;;40.32;16.47;101295.88;5119024;27;20084;-88
2022/09/25 12:03:28;;;;;;;4.03;2.10;;;;;;;40.94;15.99;101295.63;5119198;27;20550;-87
2022/09/25 12:06:07;;;;;;;3.90;2.13;;;;;;;37.53;17.91;101280.38;5118512;27;20041;-88
2022/09/25 12:08:56;;;;;;;10.20;4.03;;;;;;;34.36;24.19;101276.22;5137633;27;20046;-87
2022/09/25 12:11:44;;;;;;;3.83;2.33;;;;;;;31.92;25.93;101275.91;5118844;27;20019;-87
2022/09/25 12:14:18;;;;;;;4.28;2.00;;;;;;;30.95;26.84;101265.78;5136995;27;20023;-87
2022/09/25 12:17:31;;;;;;;5.10;2.30;;;;;;;32.13;25.91;101265.41;5137045;27;20027;-88
2022/09/25 12:20:15;;;;;;;3.17;1.90;;;;;;;35.63;23.01;101271.84;5102567;27;20019;-88
2022/09/25 12:23:02;;;;;;;3.08;2.20;;;;;;;37.77;18.84;101269.66;5118086;27;20164;-88
2022/09/25 12:25:52;;;;;;;2.58;2.10;;;;;;;40.37;18.48;101263.34;5137210;27;20033;-88
2022/09/25 12:28:27;;;;;;;4.68;2.55;;;;;;;42.38;13.46;101269.56;5118042;27;20117;-88
2022/09/25 12:34:10;;;;;;;3.30;3.00;;;;;;;46.03;14.89;101255.38;5137156;27;20049;-88
2022/09/25 12:50:19;;;;;;;4.53;4.00;;;;;;;47.87;12.92;101226.50;5073178;28;20082;-88
2022/09/25 12:52:54;;;;;;;5.93;4.65;;;;;;;47.23;11.53;101218.91;5073000;28;20040;-88
2022/09/25 12:55:22;;;;;;;4.80;4.40;;;;;;;43.76;11.86;101197.72;5055859;28;20127;-88
2022/09/25 12:57:59;;;;;;;4.25;3.85;;;;;;;41.90;13.71;101205.78;5072448;28;20055;-88
2022/09/25 13:00:29;;;;;;;4.78;4.38;;;;;;;43.21;12.46;101205.63;5072534;28;20036;-88
2022/09/25 13:03:13;;;;;;;4.10;3.80;;;;;;;43.23;15.18;101203.16;5056267;28;20370;-88
2022/09/25 13:09:06;;;;;;;4.82;3.58;;;;;;;36.95;18.51;101194.16;5072609;28;20044;-89
2022/09/25 13:12:03;;;;;;;3.45;3.05;;;;;;;34.80;18.78;101193.44;5055419;28;20131;-88
2022/09/25 13:14:28;;;;;;;3.33;3.00;;;;;;;33.69;20.74;101189.81;5056398;27;20129;-88
2022/09/25 13:16:54;;;;;;;4.63;2.73;;;;;;;32.80;21.61;101197.56;5116812;27;20471;-88
2022/09/25 13:19:25;;;;;;;4.50;2.60;;;;;;;31.42;23.68;101190.94;5135921;27;20035;-88
2022/09/25 13:22:03;;;;;;;5.18;2.40;;;;;;;30.16;24.65;101187.22;5135777;27;20027;-88
2022/09/25 13:25:14;;;;;;;3.75;2.40;;;;;;;29.67;25.90;101186.88;5118414;27;20482;-87
2022/09/25 13:27:42;;;;;;;2.55;2.05;;;;;;;27.71;27.64;101195.25;5135547;27;20188;-88
2022/09/25 13:30:21;;;;;;;4.47;2.10;;;;;;;27.28;29.53;101185.56;5117839;27;20035;-87
2022/09/25 13:33:01;;;;;;;4.30;2.40;;;;;;;26.65;30.06;101190.25;5137574;27;20079;-87
2022/09/25 13:35:54;;;;;;;;;;;;;;;;;;;;;
2022/09/25 13:41:36;;;;;;;2.85;1.92;;;;;;;26.19;32.27;101181.03;5136451;27;20490;-93
2022/09/25 13:44:40;;;;;;;2.53;1.73;;;;;;;30.71;27.32;101184.47;5116819;27;20039;-93
2022/09/25 13:47:46;;;;;;;2.75;1.92;;;;;;;35.67;22.16;101173.16;5118411;27;20026;-94
2022/09/25 13:50:39;;;;;;;3.97;2.30;;;;;;;37.40;19.91;101178.00;5117033;27;20118;-94